Terminal Aerodrome Forecast
Issued by NWS North Platte, NE

Home | Current Version | Previous Version | Text Only | Print | Product List | Glossary On
Versions: 1 2 3 4 5 6 7 8 9 10 11 12 13 14 15 16 17 18
000
FTUS43 KLBF 311100 RRA
TAFVTN
TAF
KVTN 311141Z 3112/0112 07006KT P6SM OVC200
     FM311500 04006KT P6SM BKN008
     FM311800 05008KT 5SM BR OVC008
     FM312100 04010KT 3SM -SN BR OVC007
     FM312300 03013KT 1SM -SN BR OVC005
     FM010500 35014G21KT 5SM -SN BR OVC007
     FM010900 35015G25KT P6SM OVC015=

USA.gov is the U.S. government's official web portal to all federal, state and local government web resources and services.